sensor_id;sensor_type;location;lat;lon;timestamp;P1;durP1;ratioP1;P2;durP2;ratioP2
7158;SDS011;63175;52.374;13.132;2022-11-18T04:52:36;17.33;;;14.53;;
7158;SDS011;63175;52.374;13.132;2022-11-18T04:55:03;19.60;;;15.63;;
7158;SDS011;63175;52.374;13.132;2022-11-18T04:57:30;19.10;;;15.17;;
7158;SDS011;63175;52.374;13.132;2022-11-18T04:59:57;18.00;;;13.97;;
7158;SDS011;63175;52.374;13.132;2022-11-18T05:02:24;19.43;;;15.77;;
7158;SDS011;63175;52.374;13.132;2022-11-18T05:04:51;20.33;;;15.07;;
7158;SDS011;63175;52.374;13.132;2022-11-18T05:07:18;19.57;;;16.40;;
7158;SDS011;63175;52.374;13.132;2022-11-18T05:09:46;21.60;;;16.60;;
7158;SDS011;63175;52.374;13.132;2022-11-18T05:12:13;21.30;;;16.80;;
7158;SDS011;63175;52.374;13.132;2022-11-18T05:14:57;20.30;;;16.27;;
7158;SDS011;63175;52.374;13.132;2022-11-18T05:17:25;20.17;;;15.80;;
7158;SDS011;63175;52.374;13.132;2022-11-18T05:19:51;21.23;;;16.50;;
7158;SDS011;63175;52.374;13.132;2022-11-18T05:22:18;20.70;;;16.00;;
7158;SDS011;63175;52.374;13.132;2022-11-18T05:24:47;20.20;;;16.60;;
7158;SDS011;63175;52.374;13.132;2022-11-18T05:27:14;18.70;;;15.60;;
7158;SDS011;63175;52.374;13.132;2022-11-18T05:29:41;18.40;;;14.93;;
7158;SDS011;63175;52.374;13.132;2022-11-18T05:32:08;19.73;;;16.33;;
7158;SDS011;63175;52.374;13.132;2022-11-18T05:34:35;20.87;;;16.47;;
7158;SDS011;63175;52.374;13.132;2022-11-18T05:37:02;21.93;;;17.50;;
7158;SDS011;63175;52.374;13.132;2022-11-18T05:39:29;21.10;;;16.27;;
7158;SDS011;63175;52.374;13.132;2022-11-18T05:41:58;19.90;;;15.60;;
7158;SDS011;63175;52.374;13.132;2022-11-18T05:44:43;19.37;;;14.87;;
7158;SDS011;63175;52.374;13.132;2022-11-18T05:47:10;20.47;;;16.40;;
7158;SDS011;63175;52.374;13.132;2022-11-18T05:49:37;19.47;;;15.00;;
7158;SDS011;63175;52.374;13.132;2022-11-18T05:52:04;21.23;;;16.40;;
7158;SDS011;63175;52.374;13.132;2022-11-18T05:54:31;26.23;;;18.03;;
7158;SDS011;63175;52.374;13.132;2022-11-18T05:56:59;22.90;;;17.17;;
7158;SDS011;63175;52.374;13.132;2022-11-18T05:59:26;23.77;;;18.00;;
7158;SDS011;63175;52.374;13.132;2022-11-18T06:01:53;24.73;;;18.77;;
7158;SDS011;63175;52.374;13.132;2022-11-18T06:04:24;30.43;;;20.10;;
7158;SDS011;63175;52.374;13.132;2022-11-18T06:06:56;30.43;;;20.50;;
7158;SDS011;63175;52.374;13.132;2022-11-18T06:09:29;28.90;;;21.20;;
7158;SDS011;63175;52.374;13.132;2022-11-18T06:12:01;30.10;;;21.80;;
7158;SDS011;63175;52.374;13.132;2022-11-18T06:14:31;27.30;;;20.10;;
7158;SDS011;63175;52.374;13.132;2022-11-18T06:17:01;25.53;;;20.53;;
7158;SDS011;63175;52.374;13.132;2022-11-18T06:19:31;25.70;;;19.43;;
7158;SDS011;63175;52.374;13.132;2022-11-18T06:21:59;27.33;;;19.47;;
7158;SDS011;63175;52.374;13.132;2022-11-18T06:24:26;24.67;;;19.03;;
7158;SDS011;63175;52.374;13.132;2022-11-18T06:26:54;27.13;;;19.10;;
7158;SDS011;63175;52.374;13.132;2022-11-18T06:29:23;24.27;;;18.27;;
7158;SDS011;63175;52.374;13.132;2022-11-18T06:31:49;25.20;;;19.10;;
7158;SDS011;63175;52.374;13.132;2022-11-18T06:34:16;27.57;;;18.80;;
7158;SDS011;63175;52.374;13.132;2022-11-18T06:36:43;25.43;;;18.90;;
7158;SDS011;63175;52.374;13.132;2022-11-18T06:39:10;26.77;;;19.60;;
7158;SDS011;63175;52.374;13.132;2022-11-18T06:41:37;29.93;;;19.23;;
7158;SDS011;63175;52.374;13.132;2022-11-18T06:44:04;26.63;;;19.33;;
7158;SDS011;63175;52.374;13.132;2022-11-18T06:46:31;28.80;;;22.03;;
7158;SDS011;63175;52.374;13.132;2022-11-18T06:49:16;26.87;;;19.93;;
7158;SDS011;63175;52.374;13.132;2022-11-18T06:51:42;29.03;;;21.00;;
7158;SDS011;63175;52.374;13.132;2022-11-18T06:54:09;30.87;;;20.87;;
7158;SDS011;63175;52.374;13.132;2022-11-18T06:56:36;27.73;;;21.13;;
7158;SDS011;63175;52.374;13.132;2022-11-18T06:59:03;29.20;;;19.50;;
7158;SDS011;63175;52.374;13.132;2022-11-18T07:01:33;29.77;;;20.57;;
7158;SDS011;63175;52.374;13.132;2022-11-18T07:04:01;28.50;;;19.70;;
7158;SDS011;63175;52.374;13.132;2022-11-18T07:06:29;26.53;;;18.83;;
7158;SDS011;63175;52.374;13.132;2022-11-18T07:08:58;25.53;;;19.40;;
7158;SDS011;63175;52.374;13.132;2022-11-18T07:11:26;23.47;;;17.63;;
7158;SDS011;63175;52.374;13.132;2022-11-18T07:13:53;23.90;;;17.13;;
7158;SDS011;63175;52.374;13.132;2022-11-18T07:16:20;25.13;;;18.27;;
7158;SDS011;63175;52.374;13.132;2022-11-18T07:18:50;23.90;;;18.40;;
7158;SDS011;63175;52.374;13.132;2022-11-18T07:21:18;23.17;;;16.70;;
7158;SDS011;63175;52.374;13.132;2022-11-18T07:23:46;24.53;;;17.70;;
7158;SDS011;63175;52.374;13.132;2022-11-18T07:26:14;23.57;;;17.43;;
7158;SDS011;63175;52.374;13.132;2022-11-18T07:28:41;20.10;;;15.00;;
7158;SDS011;63175;52.374;13.132;2022-11-18T07:31:09;20.60;;;15.53;;
7158;SDS011;63175;52.374;13.132;2022-11-18T07:33:37;26.00;;;17.87;;
7158;SDS011;63175;52.374;13.132;2022-11-18T07:36:07;22.30;;;16.00;;
7158;SDS011;63175;52.374;13.132;2022-11-18T07:38:35;21.67;;;15.10;;
7158;SDS011;63175;52.374;13.132;2022-11-18T07:41:03;24.47;;;16.90;;
7158;SDS011;63175;52.374;13.132;2022-11-18T07:43:31;20.93;;;16.10;;
7158;SDS011;63175;52.374;13.132;2022-11-18T07:46:07;21.77;;;16.50;;
7158;SDS011;63175;52.374;13.132;2022-11-18T07:48:38;18.57;;;13.83;;
7158;SDS011;63175;52.374;13.132;2022-11-18T07:51:07;22.13;;;16.43;;
7158;SDS011;63175;52.374;13.132;2022-11-18T07:53:35;20.23;;;15.93;;
7158;SDS011;63175;52.374;13.132;2022-11-18T07:56:02;18.80;;;14.70;;
7158;SDS011;63175;52.374;13.132;2022-11-18T07:58:30;18.97;;;14.43;;
7158;SDS011;63175;52.374;13.132;2022-11-18T08:00:57;19.33;;;14.20;;
7158;SDS011;63175;52.374;13.132;2022-11-18T08:03:24;19.47;;;14.53;;
7158;SDS011;63175;52.374;13.132;2022-11-18T08:05:52;17.03;;;13.80;;
7158;SDS011;63175;52.374;13.132;2022-11-18T08:08:20;23.30;;;15.37;;
7158;SDS011;63175;52.374;13.132;2022-11-18T08:10:47;19.57;;;14.87;;
7158;SDS011;63175;52.374;13.132;2022-11-18T08:13:14;24.50;;;16.10;;
7158;SDS011;63175;52.374;13.132;2022-11-18T08:15:40;21.57;;;15.30;;
7158;SDS011;63175;52.374;13.132;2022-11-18T08:18:08;22.50;;;16.47;;
7158;SDS011;63175;52.374;13.132;2022-11-18T08:20:34;23.47;;;16.87;;
7158;SDS011;63175;52.374;13.132;2022-11-18T08:23:01;20.50;;;16.33;;
7158;SDS011;63175;52.374;13.132;2022-11-18T08:25:30;21.17;;;16.50;;
7158;SDS011;63175;52.374;13.132;2022-11-18T08:27:57;23.47;;;16.27;;
7158;SDS011;63175;52.374;13.132;2022-11-18T08:30:24;19.83;;;15.50;;
7158;SDS011;63175;52.374;13.132;2022-11-18T08:32:51;21.30;;;15.80;;
7158;SDS011;63175;52.374;13.132;2022-11-18T08:35:17;21.40;;;15.47;;
7158;SDS011;63175;52.374;13.132;2022-11-18T08:37:44;18.93;;;14.60;;
7158;SDS011;63175;52.374;13.132;2022-11-18T08:40:11;19.20;;;14.50;;
7158;SDS011;63175;52.374;13.132;2022-11-18T08:42:40;20.90;;;15.40;;
7158;SDS011;63175;52.374;13.132;2022-11-18T08:45:07;20.50;;;15.67;;
7158;SDS011;63175;52.374;13.132;2022-11-18T08:47:34;22.07;;;16.37;;
7158;SDS011;63175;52.374;13.132;2022-11-18T08:50:01;20.53;;;15.53;;
7158;SDS011;63175;52.374;13.132;2022-11-18T08:52:28;20.70;;;15.07;;
7158;SDS011;63175;52.374;13.132;2022-11-18T08:54:55;20.20;;;14.90;;
7158;SDS011;63175;52.374;13.132;2022-11-18T08:57:22;22.03;;;15.00;;
7158;SDS011;63175;52.374;13.132;2022-11-18T08:59:50;22.50;;;15.53;;
7158;SDS011;63175;52.374;13.132;2022-11-18T09:02:18;24.40;;;17.00;;
7158;SDS011;63175;52.374;13.132;2022-11-18T09:04:46;25.43;;;16.27;;
7158;SDS011;63175;52.374;13.132;2022-11-18T09:07:14;22.37;;;15.97;;
7158;SDS011;63175;52.374;13.132;2022-11-18T09:09:41;23.20;;;15.97;;
7158;SDS011;63175;52.374;13.132;2022-11-18T09:12:08;20.00;;;14.70;;
7158;SDS011;63175;52.374;13.132;2022-11-18T09:14:40;19.23;;;14.23;;
7158;SDS011;63175;52.374;13.132;2022-11-18T09:17:08;16.90;;;13.23;;
7158;SDS011;63175;52.374;13.132;2022-11-18T09:19:35;19.87;;;13.60;;
7158;SDS011;63175;52.374;13.132;2022-11-18T09:22:02;21.47;;;15.10;;
7158;SDS011;63175;52.374;13.132;2022-11-18T09:24:30;22.10;;;16.40;;
7158;SDS011;63175;52.374;13.132;2022-11-18T09:26:57;19.07;;;14.37;;
7158;SDS011;63175;52.374;13.132;2022-11-18T09:29:24;20.90;;;15.70;;
7158;SDS011;63175;52.374;13.132;2022-11-18T09:31:51;20.60;;;15.90;;
7158;SDS011;63175;52.374;13.132;2022-11-18T09:34:20;21.10;;;15.40;;
7158;SDS011;63175;52.374;13.132;2022-11-18T09:36:47;21.60;;;15.07;;
7158;SDS011;63175;52.374;13.132;2022-11-18T09:39:14;21.90;;;14.40;;
7158;SDS011;63175;52.374;13.132;2022-11-18T09:41:44;17.83;;;14.27;;
7158;SDS011;63175;52.374;13.132;2022-11-18T09:44:16;17.10;;;13.97;;
7158;SDS011;63175;52.374;13.132;2022-11-18T09:46:54;18.73;;;14.23;;
7158;SDS011;63175;52.374;13.132;2022-11-18T09:49:33;20.23;;;13.77;;
7158;SDS011;63175;52.374;13.132;2022-11-18T09:52:02;20.17;;;15.37;;
7158;SDS011;63175;52.374;13.132;2022-11-18T09:54:33;20.90;;;14.57;;
7158;SDS011;63175;52.374;13.132;2022-11-18T09:57:01;23.60;;;15.57;;
7158;SDS011;63175;52.374;13.132;2022-11-18T09:59:29;18.83;;;14.30;;
7158;SDS011;63175;52.374;13.132;2022-11-18T10:02:02;17.30;;;13.73;;
7158;SDS011;63175;52.374;13.132;2022-11-18T10:04:51;20.90;;;13.90;;
7158;SDS011;63175;52.374;13.132;2022-11-18T10:07:21;17.30;;;12.97;;
7158;SDS011;63175;52.374;13.132;2022-11-18T10:09:56;19.10;;;13.20;;
7158;SDS011;63175;52.374;13.132;2022-11-18T10:12:31;17.60;;;13.27;;
7158;SDS011;63175;52.374;13.132;2022-11-18T10:15:04;17.50;;;13.30;;
7158;SDS011;63175;52.374;13.132;2022-11-18T10:17:45;15.30;;;12.30;;
7158;SDS011;63175;52.374;13.132;2022-11-18T10:20:20;16.20;;;12.20;;
7158;SDS011;63175;52.374;13.132;2022-11-18T10:22:53;18.50;;;13.93;;
7158;SDS011;63175;52.374;13.132;2022-11-18T10:25:23;19.50;;;13.00;;
7158;SDS011;63175;52.374;13.132;2022-11-18T10:27:51;17.60;;;12.50;;
7158;SDS011;63175;52.374;13.132;2022-11-18T10:30:18;17.80;;;12.27;;
7158;SDS011;63175;52.374;13.132;2022-11-18T10:32:53;17.80;;;11.60;;
7158;SDS011;63175;52.374;13.132;2022-11-18T10:35:25;15.70;;;12.07;;
7158;SDS011;63175;52.374;13.132;2022-11-18T10:38:04;14.90;;;11.27;;
7158;SDS011;63175;52.374;13.132;2022-11-18T10:40:32;13.40;;;10.67;;
7158;SDS011;63175;52.374;13.132;2022-11-18T10:43:03;15.90;;;11.77;;
7158;SDS011;63175;52.374;13.132;2022-11-18T10:45:30;15.50;;;11.90;;
7158;SDS011;63175;52.374;13.132;2022-11-18T10:47:58;17.90;;;11.97;;
7158;SDS011;63175;52.374;13.132;2022-11-18T10:50:32;14.23;;;10.83;;
7158;SDS011;63175;52.374;13.132;2022-11-18T10:53:00;11.33;;;9.77;;
7158;SDS011;63175;52.374;13.132;2022-11-18T10:55:27;14.10;;;10.30;;
7158;SDS011;63175;52.374;13.132;2022-11-18T10:57:59;14.00;;;9.80;;
7158;SDS011;63175;52.374;13.132;2022-11-18T11:00:35;12.80;;;10.40;;
7158;SDS011;63175;52.374;13.132;2022-11-18T11:03:20;12.40;;;10.00;;
7158;SDS011;63175;52.374;13.132;2022-11-18T11:08:55;12.50;;;9.27;;
7158;SDS011;63175;52.374;13.132;2022-11-18T11:11:24;16.20;;;7.70;;
7158;SDS011;63175;52.374;13.132;2022-11-18T11:14:01;8.43;;;7.33;;
7158;SDS011;63175;52.374;13.132;2022-11-18T11:16:46;9.50;;;8.00;;
7158;SDS011;63175;52.374;13.132;2022-11-18T11:19:18;9.10;;;7.63;;
7158;SDS011;63175;52.374;13.132;2022-11-18T11:21:50;10.53;;;8.50;;
7158;SDS011;63175;52.374;13.132;2022-11-18T11:24:17;11.03;;;8.23;;
7158;SDS011;63175;52.374;13.132;2022-11-18T11:26:49;13.33;;;8.20;;
7158;SDS011;63175;52.374;13.132;2022-11-18T11:29:30;9.80;;;8.13;;
7158;SDS011;63175;52.374;13.132;2022-11-18T11:32:14;12.10;;;8.60;;
7158;SDS011;63175;52.374;13.132;2022-11-18T11:34:45;12.73;;;8.50;;
7158;SDS011;63175;52.374;13.132;2022-11-18T11:37:24;10.93;;;7.50;;
7158;SDS011;63175;52.374;13.132;2022-11-18T11:40:04;11.57;;;8.50;;
7158;SDS011;63175;52.374;13.132;2022-11-18T11:42:40;8.50;;;7.63;;
7158;SDS011;63175;52.374;13.132;2022-11-18T11:45:17;8.13;;;7.27;;
7158;SDS011;63175;52.374;13.132;2022-11-18T11:47:54;9.80;;;7.90;;
7158;SDS011;63175;52.374;13.132;2022-11-18T11:50:32;9.10;;;6.63;;
7158;SDS011;63175;52.374;13.132;2022-11-18T11:53:23;7.70;;;6.90;;
7158;SDS011;63175;52.374;13.132;2022-11-18T11:56:03;7.80;;;7.07;;
7158;SDS011;63175;52.374;13.132;2022-11-18T11:58:41;9.40;;;7.63;;
7158;SDS011;63175;52.374;13.132;2022-11-18T12:01:26;10.50;;;8.37;;
7158;SDS011;63175;52.374;13.132;2022-11-18T12:03:59;10.13;;;8.00;;
7158;SDS011;63175;52.374;13.132;2022-11-18T12:06:39;10.50;;;7.80;;
7158;SDS011;63175;52.374;13.132;2022-11-18T12:09:12;7.73;;;6.93;;
7158;SDS011;63175;52.374;13.132;2022-11-18T12:11:45;9.93;;;7.50;;
7158;SDS011;63175;52.374;13.132;2022-11-18T12:14:20;9.20;;;7.17;;
7158;SDS011;63175;52.374;13.132;2022-11-18T12:16:57;8.03;;;7.00;;
7158;SDS011;63175;52.374;13.132;2022-11-18T12:19:30;9.80;;;7.20;;
7158;SDS011;63175;52.374;13.132;2022-11-18T12:21:57;9.00;;;6.27;;
7158;SDS011;63175;52.374;13.132;2022-11-18T12:24:31;8.17;;;7.37;;
7158;SDS011;63175;52.374;13.132;2022-11-18T12:27:01;10.70;;;7.37;;
7158;SDS011;63175;52.374;13.132;2022-11-18T12:29:35;7.67;;;6.17;;
7158;SDS011;63175;52.374;13.132;2022-11-18T12:32:28;8.60;;;7.40;;
7158;SDS011;63175;52.374;13.132;2022-11-18T12:35:02;7.93;;;7.13;;
7158;SDS011;63175;52.374;13.132;2022-11-18T12:37:41;8.93;;;7.43;;
7158;SDS011;63175;52.374;13.132;2022-11-18T12:40:12;8.43;;;7.53;;
7158;SDS011;63175;52.374;13.132;2022-11-18T12:43:00;10.50;;;8.47;;
7158;SDS011;63175;52.374;13.132;2022-11-18T12:45:47;10.30;;;7.90;;
7158;SDS011;63175;52.374;13.132;2022-11-18T12:48:25;11.57;;;7.43;;
7158;SDS011;63175;52.374;13.132;2022-11-18T12:50:58;7.83;;;7.03;;
7158;SDS011;63175;52.374;13.132;2022-11-18T12:53:28;8.60;;;6.50;;
7158;SDS011;63175;52.374;13.132;2022-11-18T12:56:00;8.90;;;7.10;;
7158;SDS011;63175;52.374;13.132;2022-11-18T12:58:36;7.67;;;6.77;;
7158;SDS011;63175;52.374;13.132;2022-11-18T13:01:06;10.97;;;9.27;;
7158;SDS011;63175;52.374;13.132;2022-11-18T13:03:35;11.00;;;8.30;;
7158;SDS011;63175;52.374;13.132;2022-11-18T13:06:05;9.80;;;7.60;;
7158;SDS011;63175;52.374;13.132;2022-11-18T13:08:37;8.70;;;7.30;;
7158;SDS011;63175;52.374;13.132;2022-11-18T13:11:13;15.83;;;9.20;;
7158;SDS011;63175;52.374;13.132;2022-11-18T13:14:00;8.90;;;7.77;;
7158;SDS011;63175;52.374;13.132;2022-11-18T13:16:45;8.10;;;6.87;;
7158;SDS011;63175;52.374;13.132;2022-11-18T13:19:30;8.30;;;7.40;;
7158;SDS011;63175;52.374;13.132;2022-11-18T13:21:57;9.37;;;7.03;;
7158;SDS011;63175;52.374;13.132;2022-11-18T13:24:44;10.20;;;7.80;;
7158;SDS011;63175;52.374;13.132;2022-11-18T13:27:17;7.57;;;6.40;;
7158;SDS011;63175;52.374;13.132;2022-11-18T13:29:54;6.20;;;5.60;;
7158;SDS011;63175;52.374;13.132;2022-11-18T13:32:27;12.80;;;7.80;;
7158;SDS011;63175;52.374;13.132;2022-11-18T13:34:55;7.43;;;6.40;;
7158;SDS011;63175;52.374;13.132;2022-11-18T13:37:23;8.93;;;6.80;;
7158;SDS011;63175;52.374;13.132;2022-11-18T13:39:51;7.37;;;6.23;;
7158;SDS011;63175;52.374;13.132;2022-11-18T13:42:20;7.40;;;5.50;;
7158;SDS011;63175;52.374;13.132;2022-11-18T13:44:51;6.87;;;6.13;;
7158;SDS011;63175;52.374;13.132;2022-11-18T13:47:21;6.10;;;5.50;;
7158;SDS011;63175;52.374;13.132;2022-11-18T13:49:53;6.23;;;5.63;;
7158;SDS011;63175;52.374;13.132;2022-11-18T13:52:27;6.93;;;5.87;;
7158;SDS011;63175;52.374;13.132;2022-11-18T13:54:57;6.33;;;5.37;;
7158;SDS011;63175;52.374;13.132;2022-11-18T13:57:29;9.23;;;5.67;;
7158;SDS011;63175;52.374;13.132;2022-11-18T13:59:57;5.60;;;5.03;;
7158;SDS011;63175;52.374;13.132;2022-11-18T14:02:31;6.37;;;4.83;;
7158;SDS011;63175;52.374;13.132;2022-11-18T14:05:03;9.97;;;4.73;;
7158;SDS011;63175;52.374;13.132;2022-11-18T14:07:30;5.80;;;5.20;;
7158;SDS011;63175;52.374;13.132;2022-11-18T14:10:00;4.90;;;4.50;;
7158;SDS011;63175;52.374;13.132;2022-11-18T14:12:30;5.30;;;4.90;;
7158;SDS011;63175;52.374;13.132;2022-11-18T14:17:53;5.20;;;4.70;;
7158;SDS011;63175;52.374;13.132;2022-11-18T14:20:23;6.87;;;5.00;;
7158;SDS011;63175;52.374;13.132;2022-11-18T14:22:52;4.53;;;4.00;;
7158;SDS011;63175;52.374;13.132;2022-11-18T14:25:21;6.27;;;4.60;;
7158;SDS011;63175;52.374;13.132;2022-11-18T14:27:53;5.00;;;4.50;;
7158;SDS011;63175;52.374;13.132;2022-11-18T14:30:28;4.83;;;4.33;;
7158;SDS011;63175;52.374;13.132;2022-11-18T14:33:08;4.53;;;4.13;;
7158;SDS011;63175;52.374;13.132;2022-11-18T14:35:50;4.73;;;4.23;;
7158;SDS011;63175;52.374;13.132;2022-11-18T14:38:21;4.60;;;4.13;;
7158;SDS011;63175;52.374;13.132;2022-11-18T14:40:53;3.77;;;3.57;;
7158;SDS011;63175;52.374;13.132;2022-11-18T14:43:22;3.40;;;3.10;;
7158;SDS011;63175;52.374;13.132;2022-11-18T14:45:49;4.63;;;4.23;;
7158;SDS011;63175;52.374;13.132;2022-11-18T14:48:19;5.13;;;3.70;;
7158;SDS011;63175;52.374;13.132;2022-11-18T14:50:48;4.03;;;3.63;;
7158;SDS011;63175;52.374;13.132;2022-11-18T14:53:16;5.30;;;4.20;;
7158;SDS011;63175;52.374;13.132;2022-11-18T14:55:43;4.83;;;4.43;;
7158;SDS011;63175;52.374;13.132;2022-11-18T14:58:13;5.07;;;4.37;;
7158;SDS011;63175;52.374;13.132;2022-11-18T15:00:41;3.90;;;3.60;;
7158;SDS011;63175;52.374;13.132;2022-11-18T15:03:09;4.83;;;4.33;;
7158;SDS011;63175;52.374;13.132;2022-11-18T15:05:36;4.30;;;4.00;;
7158;SDS011;63175;52.374;13.132;2022-11-18T15:08:03;4.33;;;3.97;;
7158;SDS011;63175;52.374;13.132;2022-11-18T15:10:30;4.83;;;4.43;;
7158;SDS011;63175;52.374;13.132;2022-11-18T15:12:57;4.50;;;4.10;;
7158;SDS011;63175;52.374;13.132;2022-11-18T15:15:24;4.37;;;3.80;;
7158;SDS011;63175;52.374;13.132;2022-11-18T15:17:52;5.07;;;4.57;;
7158;SDS011;63175;52.374;13.132;2022-11-18T15:20:20;7.40;;;4.83;;
7158;SDS011;63175;52.374;13.132;2022-11-18T15:22:48;5.60;;;4.30;;
7158;SDS011;63175;52.374;13.132;2022-11-18T15:25:14;6.50;;;4.40;;
7158;SDS011;63175;52.374;13.132;2022-11-18T15:27:41;4.30;;;4.00;;
7158;SDS011;63175;52.374;13.132;2022-11-18T15:30:09;4.67;;;4.27;;
7158;SDS011;63175;52.374;13.132;2022-11-18T15:32:37;4.60;;;4.20;;
7158;SDS011;63175;52.374;13.132;2022-11-18T15:35:06;5.10;;;4.30;;
7158;SDS011;63175;52.374;13.132;2022-11-18T15:37:36;5.23;;;4.73;;
7158;SDS011;63175;52.374;13.132;2022-11-18T15:40:03;5.70;;;5.20;;
7158;SDS011;63175;52.374;13.132;2022-11-18T15:42:31;5.00;;;4.50;;
7158;SDS011;63175;52.374;13.132;2022-11-18T15:44:57;6.17;;;5.20;;
7158;SDS011;63175;52.374;13.132;2022-11-18T15:47:24;5.17;;;4.67;;
7158;SDS011;63175;52.374;13.132;2022-11-18T15:49:51;5.90;;;4.70;;
7158;SDS011;63175;52.374;13.132;2022-11-18T15:52:19;5.87;;;4.90;;
7158;SDS011;63175;52.374;13.132;2022-11-18T15:54:46;5.53;;;4.90;;
7158;SDS011;63175;52.374;13.132;2022-11-18T15:57:13;7.10;;;4.67;;
7158;SDS011;63175;52.374;13.132;2022-11-18T15:59:40;4.73;;;4.33;;
7158;SDS011;63175;52.374;13.132;2022-11-18T16:02:07;5.60;;;4.67;;
7158;SDS011;63175;52.374;13.132;2022-11-18T16:04:35;5.67;;;5.17;;
7158;SDS011;63175;52.374;13.132;2022-11-18T16:07:01;5.50;;;4.97;;
7158;SDS011;63175;52.374;13.132;2022-11-18T16:09:30;5.07;;;4.63;;
7158;SDS011;63175;52.374;13.132;2022-11-18T16:12:11;4.17;;;3.83;;
7158;SDS011;63175;52.374;13.132;2022-11-18T16:14:55;6.73;;;5.00;;
7158;SDS011;63175;52.374;13.132;2022-11-18T16:17:49;6.80;;;5.67;;
7158;SDS011;63175;52.374;13.132;2022-11-18T16:20:16;7.40;;;5.10;;
7158;SDS011;63175;52.374;13.132;2022-11-18T16:22:43;5.30;;;4.80;;
7158;SDS011;63175;52.374;13.132;2022-11-18T16:25:11;4.97;;;4.57;;
7158;SDS011;63175;52.374;13.132;2022-11-18T16:27:38;6.07;;;5.17;;
7158;SDS011;63175;52.374;13.132;2022-11-18T16:30:05;4.33;;;3.93;;
7158;SDS011;63175;52.374;13.132;2022-11-18T16:32:53;5.03;;;4.63;;
7158;SDS011;63175;52.374;13.132;2022-11-18T16:35:19;4.93;;;4.53;;
7158;SDS011;63175;52.374;13.132;2022-11-18T16:37:45;4.07;;;3.70;;
7158;SDS011;63175;52.374;13.132;2022-11-18T16:40:14;4.67;;;4.23;;
7158;SDS011;63175;52.374;13.132;2022-11-18T16:42:41;4.90;;;4.30;;
7158;SDS011;63175;52.374;13.132;2022-11-18T16:45:08;3.97;;;3.67;;
7158;SDS011;63175;52.374;13.132;2022-11-18T16:47:35;4.40;;;3.97;;
7158;SDS011;63175;52.374;13.132;2022-11-18T16:50:04;3.93;;;3.50;;
7158;SDS011;63175;52.374;13.132;2022-11-18T16:52:31;4.37;;;3.97;;
7158;SDS011;63175;52.374;13.132;2022-11-18T16:54:58;5.07;;;4.20;;
7158;SDS011;63175;52.374;13.132;2022-11-18T16:57:26;8.20;;;5.70;;
7158;SDS011;63175;52.374;13.132;2022-11-18T16:59:53;6.70;;;5.70;;
7158;SDS011;63175;52.374;13.132;2022-11-18T17:02:20;7.67;;;6.33;;
7158;SDS011;63175;52.374;13.132;2022-11-18T17:04:47;6.97;;;5.80;;
7158;SDS011;63175;52.374;13.132;2022-11-18T17:07:14;6.33;;;4.90;;
7158;SDS011;63175;52.374;13.132;2022-11-18T17:09:41;10.00;;;5.87;;
7158;SDS011;63175;52.374;13.132;2022-11-18T17:12:08;5.57;;;4.87;;
7158;SDS011;63175;52.374;13.132;2022-11-18T17:14:36;4.90;;;4.40;;
7158;SDS011;63175;52.374;13.132;2022-11-18T17:17:04;5.20;;;4.70;;
7158;SDS011;63175;52.374;13.132;2022-11-18T17:19:31;5.83;;;4.13;;
7158;SDS011;63175;52.374;13.132;2022-11-18T17:21:58;6.57;;;4.83;;
7158;SDS011;63175;52.374;13.132;2022-11-18T17:24:25;3.60;;;3.33;;
7158;SDS011;63175;52.374;13.132;2022-11-18T17:26:52;5.40;;;4.70;;
7158;SDS011;63175;52.374;13.132;2022-11-18T17:29:19;5.87;;;4.40;;
7158;SDS011;63175;52.374;13.132;2022-11-18T17:31:47;4.47;;;4.07;;
7158;SDS011;63175;52.374;13.132;2022-11-18T17:34:14;5.60;;;5.00;;
7158;SDS011;63175;52.374;13.132;2022-11-18T17:36:42;6.07;;;4.20;;
7158;SDS011;63175;52.374;13.132;2022-11-18T17:39:09;5.10;;;4.60;;
7158;SDS011;63175;52.374;13.132;2022-11-18T17:41:37;5.10;;;4.60;;
7158;SDS011;63175;52.374;13.132;2022-11-18T17:44:22;4.20;;;3.80;;
7158;SDS011;63175;52.374;13.132;2022-11-18T17:46:50;5.60;;;4.90;;
7158;SDS011;63175;52.374;13.132;2022-11-18T17:49:17;8.20;;;4.60;;
7158;SDS011;63175;52.374;13.132;2022-11-18T17:51:46;5.93;;;4.97;;
7158;SDS011;63175;52.374;13.132;2022-11-18T17:54:15;5.63;;;4.80;;
7158;SDS011;63175;52.374;13.132;2022-11-18T17:56:42;4.43;;;3.73;;
7158;SDS011;63175;52.374;13.132;2022-11-18T17:59:09;4.77;;;4.30;;
7158;SDS011;63175;52.374;13.132;2022-11-18T18:01:38;5.03;;;4.57;;
7158;SDS011;63175;52.374;13.132;2022-11-18T18:04:07;5.30;;;4.33;;
7158;SDS011;63175;52.374;13.132;2022-11-18T18:06:34;4.80;;;4.30;;
7158;SDS011;63175;52.374;13.132;2022-11-18T18:09:01;4.73;;;4.10;;
7158;SDS011;63175;52.374;13.132;2022-11-18T18:11:28;7.37;;;5.90;;
7158;SDS011;63175;52.374;13.132;2022-11-18T18:13:55;7.93;;;6.80;;
7158;SDS011;63175;52.374;13.132;2022-11-18T18:16:40;7.50;;;5.93;;
7158;SDS011;63175;52.374;13.132;2022-11-18T18:19:11;8.97;;;5.63;;
7158;SDS011;63175;52.374;13.132;2022-11-18T18:21:39;6.57;;;5.67;;
7158;SDS011;63175;52.374;13.132;2022-11-18T18:24:06;7.63;;;5.80;;
7158;SDS011;63175;52.374;13.132;2022-11-18T18:26:34;7.47;;;5.93;;
7158;SDS011;63175;52.374;13.132;2022-11-18T18:29:01;7.97;;;5.73;;
7158;SDS011;63175;52.374;13.132;2022-11-18T18:31:31;10.20;;;6.67;;
7158;SDS011;63175;52.374;13.132;2022-11-18T18:33:59;7.07;;;6.30;;
7158;SDS011;63175;52.374;13.132;2022-11-18T18:36:28;7.53;;;6.50;;
7158;SDS011;63175;52.374;13.132;2022-11-18T18:38:55;9.63;;;6.87;;
7158;SDS011;63175;52.374;13.132;2022-11-18T18:41:23;10.03;;;6.70;;
7158;SDS011;63175;52.374;13.132;2022-11-18T18:43:50;7.70;;;6.63;;
7158;SDS011;63175;52.374;13.132;2022-11-18T18:46:18;10.03;;;7.20;;
7158;SDS011;63175;52.374;13.132;2022-11-18T18:48:59;9.10;;;6.67;;
7158;SDS011;63175;52.374;13.132;2022-11-18T18:51:29;8.37;;;6.70;;
7158;SDS011;63175;52.374;13.132;2022-11-18T18:53:58;8.40;;;6.43;;
7158;SDS011;63175;52.374;13.132;2022-11-18T18:56:25;10.07;;;7.63;;
7158;SDS011;63175;52.374;13.132;2022-11-18T18:58:52;10.10;;;7.07;;
7158;SDS011;63175;52.374;13.132;2022-11-18T19:01:19;9.43;;;7.27;;
7158;SDS011;63175;52.374;13.132;2022-11-18T19:03:46;9.17;;;6.40;;
7158;SDS011;63175;52.374;13.132;2022-11-18T19:06:18;10.10;;;7.80;;
7158;SDS011;63175;52.374;13.132;2022-11-18T19:08:47;9.70;;;7.37;;
7158;SDS011;63175;52.374;13.132;2022-11-18T19:11:15;9.30;;;6.73;;
7158;SDS011;63175;52.374;13.132;2022-11-18T19:14:01;8.83;;;6.63;;
7158;SDS011;63175;52.374;13.132;2022-11-18T19:16:30;8.27;;;7.30;;
7158;SDS011;63175;52.374;13.132;2022-11-18T19:18:57;7.93;;;6.73;;
7158;SDS011;63175;52.374;13.132;2022-11-18T19:21:24;9.60;;;7.13;;
7158;SDS011;63175;52.374;13.132;2022-11-18T19:23:52;9.70;;;7.30;;
7158;SDS011;63175;52.374;13.132;2022-11-18T19:26:19;8.10;;;6.73;;
7158;SDS011;63175;52.374;13.132;2022-11-18T19:28:47;7.97;;;6.43;;
7158;SDS011;63175;52.374;13.132;2022-11-18T19:31:14;13.17;;;8.70;;
7158;SDS011;63175;52.374;13.132;2022-11-18T19:33:42;9.43;;;7.87;;
7158;SDS011;63175;52.374;13.132;2022-11-18T19:36:09;8.70;;;7.00;;
7158;SDS011;63175;52.374;13.132;2022-11-18T19:38:36;7.30;;;6.20;;
7158;SDS011;63175;52.374;13.132;2022-11-18T19:41:05;9.43;;;7.30;;
7158;SDS011;63175;52.374;13.132;2022-11-18T19:43:33;12.93;;;7.60;;
7158;SDS011;63175;52.374;13.132;2022-11-18T19:46:00;10.43;;;7.53;;
7158;SDS011;63175;52.374;13.132;2022-11-18T19:48:27;11.73;;;8.23;;
7158;SDS011;63175;52.374;13.132;2022-11-18T19:51:02;12.13;;;8.00;;